createdAt,value
2018-02-24T00:07:54.076Z,3.18
2018-02-24T00:17:52.424Z,3.18
2018-02-24T00:27:51.758Z,3.18
2018-02-24T00:37:52.480Z,3.18
2018-02-24T00:47:52.608Z,3.18
2018-02-24T00:57:51.877Z,3.18
2018-02-24T01:07:48.568Z,3.18
2018-02-24T01:17:47.857Z,3.18
2018-02-24T01:27:45.029Z,3.18
2018-02-24T01:37:44.391Z,3.18
2018-02-24T01:47:45.808Z,3.18
2018-02-24T01:57:44.749Z,3.18
2018-02-24T02:07:44.097Z,3.17
2018-02-24T02:17:43.302Z,3.17
2018-02-24T02:27:43.098Z,3.17
2018-02-24T02:37:42.607Z,3.17
2018-02-24T02:47:42.547Z,3.17
2018-02-24T02:57:43.777Z,3.17
2018-02-24T03:07:43.177Z,3.17
2018-02-24T03:17:42.520Z,3.17
2018-02-24T03:27:43.772Z,3.17
2018-02-24T03:37:44.050Z,3.17
2018-02-24T03:47:42.598Z,3.17
2018-02-24T03:57:42.061Z,3.16
2018-02-24T04:07:42.931Z,3.16
2018-02-24T04:17:41.264Z,3.16
2018-02-24T04:27:41.226Z,3.16
2018-02-24T04:37:40.681Z,3.16
2018-02-24T04:47:42.247Z,3.15
2018-02-24T04:57:42.608Z,3.15
2018-02-24T05:07:41.898Z,3.15
2018-02-24T05:17:42.812Z,3.15
2018-02-24T05:27:43.884Z,3.15
2018-02-24T05:37:46.052Z,3.15
2018-02-24T05:47:45.928Z,3.15
2018-02-24T05:57:46.468Z,3.15
2018-02-24T06:07:46.881Z,3.15
2018-02-24T06:17:48.180Z,3.15
2018-02-24T06:27:44.336Z,3.15
2018-02-24T06:37:45.739Z,3.15
2018-02-24T06:47:47.423Z,3.15
2018-02-24T06:57:44.249Z,3.15
2018-02-24T07:07:44.533Z,3.15
2018-02-24T07:17:45.623Z,3.16
2018-02-24T07:27:42.274Z,3.17
2018-02-24T07:37:34.508Z,3.17
2018-02-24T07:47:28.700Z,3.18
2018-02-24T07:57:22.544Z,3.19
2018-02-24T08:07:18.401Z,3.21
2018-02-24T08:17:18.770Z,3.22
2018-02-24T08:27:15.677Z,3.22
2018-02-24T08:37:11.524Z,3.23
2018-02-24T08:47:10.060Z,3.24
2018-02-24T08:57:01.208Z,3.25
2018-02-24T09:06:58.629Z,3.26
2018-02-24T09:16:59.091Z,3.28
2018-02-24T09:26:49.626Z,3.25
2018-02-24T09:36:47.942Z,3.25
2018-02-24T09:46:47.594Z,3.25
2018-02-24T09:56:42.704Z,3.25
2018-02-24T10:06:36.822Z,3.26
2018-02-24T10:16:35.303Z,3.26
2018-02-24T10:26:32.333Z,3.26
2018-02-24T10:36:32.221Z,3.25
2018-02-24T10:46:18.250Z,3.25
2018-02-24T10:56:16.095Z,3.25
2018-02-24T11:06:11.963Z,3.25
2018-02-24T11:16:03.284Z,3.25
2018-02-24T11:26:00.230Z,3.26
2018-02-24T11:35:57.500Z,3.26
2018-02-24T11:45:50.240Z,3.26
2018-02-24T11:55:47.879Z,3.25
2018-02-24T12:05:45.477Z,3.26
2018-02-24T12:15:40.255Z,3.25
2018-02-24T12:25:40.642Z,3.25
2018-02-24T12:35:34.697Z,3.25
2018-02-24T12:45:33.028Z,3.25
2018-02-24T12:55:28.658Z,3.26
2018-02-24T13:05:25.137Z,3.26
2018-02-24T13:15:15.818Z,3.26
2018-02-24T13:25:10.908Z,3.27
2018-02-24T13:35:00.591Z,3.27
2018-02-24T13:44:56.056Z,3.28
2018-02-24T13:54:53.096Z,3.30
2018-02-24T14:04:54.688Z,3.35
2018-02-24T14:14:48.022Z,3.37
2018-02-24T14:24:29.956Z,3.40
2018-02-24T14:34:14.713Z,3.33
2018-02-24T14:44:09.344Z,3.31
2018-02-24T14:54:07.471Z,3.30
2018-02-24T15:04:02.435Z,3.29
2018-02-24T15:13:59.173Z,3.29
2018-02-24T15:23:58.613Z,3.28
2018-02-24T15:33:55.543Z,3.25
2018-02-24T15:43:54.028Z,3.26
2018-02-24T15:53:49.303Z,3.25
2018-02-24T16:03:45.772Z,3.25
2018-02-24T16:13:42.646Z,3.23
2018-02-24T16:23:40.945Z,3.23
2018-02-24T16:33:39.448Z,3.22
2018-02-24T16:43:37.101Z,3.22
2018-02-24T16:53:36.884Z,3.22
2018-02-24T17:03:32.356Z,3.21
2018-02-24T17:13:31.847Z,3.21
2018-02-24T17:23:31.326Z,3.21
2018-02-24T17:33:30.509Z,3.21
2018-02-24T17:43:28.067Z,3.21
2018-02-24T17:53:27.050Z,3.20
2018-02-24T18:03:24.817Z,3.20
2018-02-24T18:13:21.911Z,3.20
2018-02-24T18:23:20.904Z,3.19
2018-02-24T18:33:20.547Z,3.19
2018-02-24T18:43:18.274Z,3.19
2018-02-24T18:53:14.422Z,3.19
2018-02-24T19:03:11.832Z,3.18
2018-02-24T19:13:11.352Z,3.18
2018-02-24T19:23:11.667Z,3.18
2018-02-24T19:32:47.286Z,3.18
2018-02-24T19:42:24.663Z,3.18
2018-02-24T19:52:02.166Z,3.18
2018-02-24T20:01:40.015Z,3.18
2018-02-24T20:11:18.229Z,3.18
2018-02-24T20:20:56.594Z,3.18
2018-02-24T20:30:34.567Z,3.18
2018-02-24T20:40:12.087Z,3.17
2018-02-24T20:49:53.655Z,3.17
2018-02-24T20:59:23.276Z,3.17
2018-02-24T21:09:22.828Z,3.17
2018-02-24T21:19:16.952Z,3.16
2018-02-24T21:29:14.926Z,3.15
2018-02-24T21:38:52.769Z,3.15
2018-02-24T21:48:30.380Z,3.15
2018-02-24T21:58:30.419Z,3.15
2018-02-24T22:08:29.632Z,3.14
2018-02-24T22:18:04.098Z,3.13
2018-02-24T22:28:04.225Z,3.12
2018-02-24T22:38:04.476Z,3.13
2018-02-24T22:48:01.661Z,3.13
2018-02-24T22:58:03.204Z,3.12
2018-02-24T23:08:02.531Z,3.11
2018-02-24T23:18:08.217Z,3.11
2018-02-24T23:28:10.506Z,3.10
2018-02-24T23:38:07.486Z,3.09
2018-02-24T23:48:06.121Z,3.09
2018-02-24T23:58:08.034Z,3.09
